createdAt,value
2017-02-20T00:00:28.774Z,0
2017-02-20T00:01:38.151Z,0
2017-02-20T00:02:48.365Z,0
2017-02-20T00:03:57.697Z,0
2017-02-20T00:05:07.459Z,0
2017-02-20T00:06:17.232Z,0
2017-02-20T00:07:26.625Z,0
2017-02-20T00:08:36.378Z,0
2017-02-20T00:09:45.718Z,0
2017-02-20T00:10:55.484Z,0
2017-02-20T00:12:05.687Z,0
2017-02-20T00:13:15.923Z,0
2017-02-20T00:14:26.132Z,0
2017-02-20T00:15:35.889Z,0
2017-02-20T00:16:45.678Z,0
2017-02-20T00:17:55.440Z,0
2017-02-20T00:19:05.231Z,0
2017-02-20T00:20:15.416Z,0
2017-02-20T00:21:25.623Z,0
2017-02-20T00:22:35.378Z,0
2017-02-20T00:23:46.029Z,0
2017-02-20T00:24:55.837Z,0
2017-02-20T00:26:05.608Z,0
2017-02-20T00:27:15.349Z,0
2017-02-20T00:28:25.548Z,0
2017-02-20T00:29:35.747Z,0
2017-02-20T00:30:45.556Z,0
2017-02-20T00:31:56.192Z,0
2017-02-20T00:33:06.826Z,0
2017-02-20T00:34:16.587Z,0
2017-02-20T00:35:27.231Z,0
2017-02-20T00:36:37.038Z,0
2017-02-20T00:37:46.775Z,0
2017-02-20T00:38:56.984Z,0
2017-02-20T00:40:06.772Z,0
2017-02-20T00:41:16.966Z,0
2017-02-20T00:42:26.984Z,0
2017-02-20T00:43:37.211Z,0
2017-02-20T00:44:46.970Z,0
2017-02-20T00:45:56.297Z,0
2017-02-20T00:47:06.946Z,0
2017-02-20T00:48:16.748Z,0
2017-02-20T00:49:26.503Z,0
2017-02-20T00:50:35.808Z,0
2017-02-20T00:51:46.009Z,0
2017-02-20T00:52:55.346Z,0
2017-02-20T00:54:05.591Z,0
2017-02-20T00:55:14.925Z,0
2017-02-20T00:56:24.241Z,0
2017-02-20T00:57:33.570Z,0
2017-02-20T00:58:43.332Z,0
2017-02-20T00:59:53.177Z,0
2017-02-20T01:01:02.515Z,0
2017-02-20T01:02:12.299Z,0
2017-02-20T01:03:22.511Z,0
2017-02-20T01:04:33.164Z,0
2017-02-20T01:05:42.979Z,0
2017-02-20T01:06:52.318Z,0
2017-02-20T01:08:02.064Z,0
2017-02-20T01:09:12.266Z,0
2017-02-20T01:10:22.032Z,0
2017-02-20T01:11:31.833Z,0
2017-02-20T01:12:41.150Z,0
2017-02-20T01:13:50.911Z,0
2017-02-20T01:15:00.680Z,0
2017-02-20T01:16:10.442Z,0
2017-02-20T01:17:19.831Z,0
2017-02-20T01:18:29.152Z,0
2017-02-20T01:19:38.896Z,0
2017-02-20T01:20:49.113Z,0
2017-02-20T01:21:59.770Z,0
2017-02-20T01:23:10.023Z,0
2017-02-20T01:24:20.208Z,0
2017-02-20T01:25:30.402Z,0
2017-02-20T01:26:40.603Z,0
2017-02-20T01:27:51.226Z,0
2017-02-20T01:29:01.479Z,0
2017-02-20T01:30:12.088Z,0
2017-02-20T01:31:21.868Z,0
2017-02-20T01:32:31.667Z,0
2017-02-20T01:33:42.314Z,0
2017-02-20T01:34:52.713Z,0
2017-02-20T01:36:02.026Z,0
2017-02-20T01:37:12.239Z,0
2017-02-20T01:38:22.452Z,0
2017-02-20T01:39:32.233Z,0
2017-02-20T01:40:42.493Z,0
2017-02-20T01:41:52.254Z,0
2017-02-20T01:43:02.443Z,0
2017-02-20T01:44:11.777Z,0
2017-02-20T01:45:21.521Z,0
2017-02-20T01:46:31.072Z,0
2017-02-20T01:47:40.401Z,0
2017-02-20T01:48:50.183Z,0
2017-02-20T01:49:59.970Z,0
2017-02-20T01:51:10.183Z,0
2017-02-20T01:52:20.462Z,0
2017-02-20T01:53:30.659Z,0
2017-02-20T01:54:39.980Z,0
2017-02-20T01:55:49.750Z,0
2017-02-20T01:56:59.934Z,0
2017-02-20T01:58:09.292Z,0
2017-02-20T01:59:18.601Z,0
2017-02-20T02:00:28.362Z,0
2017-02-20T02:01:37.672Z,0
2017-02-20T02:02:47.880Z,0
2017-02-20T02:03:57.668Z,0
2017-02-20T02:05:08.747Z,0
2017-02-20T02:06:18.973Z,0
2017-02-20T02:07:29.165Z,0
2017-02-20T02:08:39.359Z,0
2017-02-20T02:09:49.186Z,0
2017-02-20T02:10:59.383Z,0
2017-02-20T02:12:10.016Z,0
2017-02-20T02:13:20.215Z,0
2017-02-20T02:14:29.552Z,0
2017-02-20T02:15:38.921Z,0
2017-02-20T02:16:48.673Z,0
2017-02-20T02:17:58.459Z,0
2017-02-20T02:19:08.217Z,0
2017-02-20T02:20:17.558Z,0
2017-02-20T02:21:27.405Z,0
2017-02-20T02:22:37.608Z,0
2017-02-20T02:23:47.796Z,0
2017-02-20T02:24:58.867Z,0
2017-02-20T02:26:08.647Z,0
2017-02-20T02:27:19.061Z,0
2017-02-20T02:28:28.397Z,0
2017-02-20T02:29:39.059Z,0
2017-02-20T02:30:49.301Z,0
2017-02-20T02:31:58.626Z,0
2017-02-20T02:33:08.011Z,0
2017-02-20T02:34:17.357Z,0
2017-02-20T02:35:27.577Z,0
2017-02-20T02:36:36.887Z,0
2017-02-20T02:37:46.660Z,0
2017-02-20T02:38:56.499Z,0
2017-02-20T02:40:05.825Z,0
2017-02-20T02:41:15.151Z,0
2017-02-20T02:42:24.900Z,0
2017-02-20T02:43:34.226Z,0
2017-02-20T02:44:44.069Z,0
2017-02-20T02:45:54.268Z,0
2017-02-20T02:47:04.049Z,0
2017-02-20T02:48:13.842Z,0
2017-02-20T02:49:24.043Z,0
2017-02-20T02:50:33.869Z,0
2017-02-20T02:51:43.638Z,0
2017-02-20T02:52:53.415Z,0
2017-02-20T02:54:03.196Z,0
2017-02-20T02:55:12.981Z,0
2017-02-20T02:56:22.779Z,0
2017-02-20T02:57:32.547Z,0
2017-02-20T02:58:42.749Z,0
2017-02-20T02:59:52.521Z,0
2017-02-20T03:01:02.731Z,0
2017-02-20T03:02:12.572Z,0
2017-02-20T03:03:22.350Z,0
2017-02-20T03:04:31.663Z,0
2017-02-20T03:05:41.439Z,0
2017-02-20T03:06:51.197Z,0
2017-02-20T03:08:01.018Z,0
2017-02-20T03:09:10.786Z,0
2017-02-20T03:10:21.001Z,0
2017-02-20T03:11:30.745Z,0
2017-02-20T03:12:40.519Z,0
2017-02-20T03:13:50.332Z,0
2017-02-20T03:15:00.095Z,0
2017-02-20T03:16:09.879Z,0
2017-02-20T03:17:19.644Z,0
2017-02-20T03:18:30.305Z,0
2017-02-20T03:19:40.129Z,0
2017-02-20T03:20:49.882Z,0
2017-02-20T03:21:59.668Z,0
2017-02-20T03:23:09.450Z,0
2017-02-20T03:24:19.637Z,0
2017-02-20T03:25:29.484Z,0
2017-02-20T03:26:39.261Z,0
2017-02-20T03:27:49.898Z,0
2017-02-20T03:28:59.663Z,0
2017-02-20T03:30:09.464Z,0
2017-02-20T03:31:19.294Z,0
2017-02-20T03:32:28.623Z,0
2017-02-20T03:33:38.375Z,0
2017-02-20T03:34:49.044Z,0
2017-02-20T03:35:59.275Z,0
2017-02-20T03:37:09.552Z,0
2017-02-20T03:38:19.774Z,0
2017-02-20T03:39:29.538Z,0
2017-02-20T03:40:39.310Z,0
2017-02-20T03:41:49.529Z,0
2017-02-20T03:42:59.798Z,0
2017-02-20T03:44:09.565Z,0
2017-02-20T03:45:20.227Z,0
2017-02-20T03:46:30.449Z,0
2017-02-20T03:47:40.206Z,0
2017-02-20T03:48:50.076Z,0
2017-02-20T03:49:59.837Z,0
2017-02-20T03:51:09.610Z,0
2017-02-20T03:52:19.383Z,0
2017-02-20T03:53:29.148Z,0
2017-02-20T03:54:38.978Z,0
2017-02-20T03:55:48.751Z,0
2017-02-20T03:56:58.500Z,0
2017-02-20T03:58:08.252Z,0
2017-02-20T03:59:18.887Z,0
2017-02-20T04:00:28.692Z,0
2017-02-20T04:01:38.452Z,0
2017-02-20T04:02:47.781Z,0
2017-02-20T04:03:58.440Z,0
2017-02-20T04:05:08.205Z,0
2017-02-20T04:06:17.590Z,0
2017-02-20T04:07:28.255Z,0
2017-02-20T04:08:38.024Z,0
2017-02-20T04:09:47.802Z,0
2017-02-20T04:10:57.566Z,0
2017-02-20T04:12:07.027Z,0
2017-02-20T04:13:16.799Z,0
2017-02-20T04:14:27.016Z,0
2017-02-20T04:15:37.202Z,0
2017-02-20T04:16:46.948Z,0
2017-02-20T04:17:56.757Z,0
2017-02-20T04:19:06.511Z,0
2017-02-20T04:20:16.271Z,0
2017-02-20T04:21:25.601Z,0
2017-02-20T04:22:35.355Z,0
2017-02-20T04:23:45.159Z,0
2017-02-20T04:24:54.941Z,0
2017-02-20T04:26:05.162Z,0
2017-02-20T04:27:14.919Z,0
2017-02-20T04:28:24.253Z,0
2017-02-20T04:29:34.084Z,0
2017-02-20T04:30:43.863Z,0
2017-02-20T04:31:53.634Z,0
2017-02-20T04:33:04.273Z,0
2017-02-20T04:34:14.059Z,0
2017-02-20T04:35:23.880Z,0
2017-02-20T04:36:34.096Z,0
2017-02-20T04:37:43.858Z,0
2017-02-20T04:38:53.167Z,0
2017-02-20T04:40:02.931Z,0
2017-02-20T04:41:13.201Z,0
2017-02-20T04:42:22.519Z,0
2017-02-20T04:43:32.741Z,0
2017-02-20T04:44:42.965Z,0
2017-02-20T04:45:52.737Z,0
2017-02-20T04:47:02.979Z,0
2017-02-20T04:48:13.181Z,0
2017-02-20T04:49:23.390Z,0
2017-02-20T04:50:33.172Z,0
2017-02-20T04:51:43.364Z,0
2017-02-20T04:52:53.170Z,0
2017-02-20T04:54:02.967Z,0
2017-02-20T04:55:12.743Z,0
2017-02-20T04:56:22.498Z,0
2017-02-20T04:57:32.278Z,0
2017-02-20T04:58:42.080Z,0
2017-02-20T04:59:51.840Z,0
2017-02-20T05:01:02.066Z,0
2017-02-20T05:02:11.387Z,0
2017-02-20T05:03:21.140Z,0
2017-02-20T05:04:31.397Z,0
2017-02-20T05:05:41.606Z,0
2017-02-20T05:06:51.360Z,0
2017-02-20T05:08:01.117Z,0
2017-02-20T05:09:11.327Z,0
2017-02-20T05:10:21.151Z,0
2017-02-20T05:11:31.373Z,0
2017-02-20T05:12:41.126Z,0
2017-02-20T05:13:50.903Z,0
2017-02-20T05:15:00.715Z,0
2017-02-20T05:16:10.965Z,0
2017-02-20T05:17:20.738Z,0
2017-02-20T05:18:30.495Z,0
2017-02-20T05:19:40.245Z,0
2017-02-20T05:20:50.467Z,0
2017-02-20T05:22:00.739Z,4
2017-02-20T05:23:10.056Z,0
2017-02-20T05:24:19.386Z,0
2017-02-20T05:25:28.714Z,4
2017-02-20T05:26:38.921Z,4
2017-02-20T05:27:49.176Z,4
2017-02-20T05:28:59.402Z,4
2017-02-20T05:30:09.164Z,4
2017-02-20T05:31:19.373Z,4
2017-02-20T05:32:29.155Z,4
2017-02-20T05:33:38.974Z,4
2017-02-20T05:34:49.616Z,4
2017-02-20T05:35:59.356Z,4
2017-02-20T05:37:09.129Z,4
2017-02-20T05:38:19.371Z,4
2017-02-20T05:39:29.181Z,4
2017-02-20T05:40:39.386Z,4
2017-02-20T05:41:49.178Z,4
2017-02-20T05:42:59.369Z,4
2017-02-20T05:44:09.130Z,4
2017-02-20T05:45:19.112Z,4
2017-02-20T05:46:29.328Z,4
2017-02-20T05:47:39.092Z,4
2017-02-20T05:48:49.283Z,4
2017-02-20T05:49:59.036Z,4
2017-02-20T05:51:08.872Z,4
2017-02-20T05:52:19.517Z,0
2017-02-20T05:53:29.724Z,0
2017-02-20T05:54:39.477Z,0
2017-02-20T05:55:48.950Z,0
2017-02-20T05:56:59.227Z,0
2017-02-20T05:58:09.017Z,0
2017-02-20T05:59:19.248Z,0
2017-02-20T06:00:29.467Z,0
2017-02-20T06:01:39.248Z,4
2017-02-20T06:02:50.385Z,0
2017-02-20T06:04:00.143Z,4
2017-02-20T06:05:10.339Z,4
2017-02-20T06:06:20.121Z,4
2017-02-20T06:07:29.894Z,4
2017-02-20T06:08:39.722Z,8
2017-02-20T06:09:49.476Z,8
2017-02-20T06:10:59.709Z,12
2017-02-20T06:12:09.485Z,12
2017-02-20T06:13:19.254Z,12
2017-02-20T06:14:29.095Z,16
2017-02-20T06:15:39.286Z,20
2017-02-20T06:16:49.490Z,24
2017-02-20T06:17:59.248Z,32
2017-02-20T06:19:09.462Z,36
2017-02-20T06:20:20.598Z,44
2017-02-20T06:21:29.935Z,44
2017-02-20T06:22:40.133Z,48
2017-02-20T06:23:50.381Z,48
2017-02-20T06:25:00.571Z,48
2017-02-20T06:26:10.833Z,56
2017-02-20T06:27:21.052Z,64
2017-02-20T06:28:30.811Z,72
2017-02-20T06:29:40.130Z,84
2017-02-20T06:30:50.786Z,88
2017-02-20T06:32:01.486Z,92
2017-02-20T06:33:11.700Z,92
2017-02-20T06:34:21.452Z,96
2017-02-20T06:35:31.201Z,104
2017-02-20T06:36:40.545Z,112
2017-02-20T06:37:51.234Z,116
2017-02-20T06:39:01.893Z,116
2017-02-20T06:40:11.686Z,116
2017-02-20T06:41:21.436Z,132
2017-02-20T06:42:31.653Z,136
2017-02-20T06:43:41.454Z,140
2017-02-20T06:44:51.211Z,156
2017-02-20T06:46:00.975Z,168
2017-02-20T06:47:11.616Z,176
2017-02-20T06:48:21.854Z,184
2017-02-20T06:49:32.116Z,200
2017-02-20T06:50:41.875Z,188
2017-02-20T06:51:52.086Z,220
2017-02-20T06:53:02.751Z,232
2017-02-20T06:54:12.533Z,236
2017-02-20T06:55:22.806Z,244
2017-02-20T06:56:32.571Z,252
2017-02-20T06:57:42.332Z,240
2017-02-20T06:58:52.539Z,256
2017-02-20T07:00:02.305Z,268
2017-02-20T07:01:12.554Z,296
2017-02-20T07:02:22.332Z,308
2017-02-20T07:03:32.545Z,336
2017-02-20T07:04:42.309Z,344
2017-02-20T07:05:52.994Z,356
2017-02-20T07:07:02.817Z,356
2017-02-20T07:08:13.021Z,356
2017-02-20T07:09:22.800Z,376
2017-02-20T07:10:32.572Z,412
2017-02-20T07:11:42.338Z,436
2017-02-20T07:12:52.143Z,472
2017-02-20T07:14:01.485Z,496
2017-02-20T07:15:11.269Z,500
2017-02-20T07:16:21.047Z,528
2017-02-20T07:17:30.384Z,524
2017-02-20T07:18:40.193Z,536
2017-02-20T07:19:49.950Z,548
2017-02-20T07:20:59.750Z,552
2017-02-20T07:22:09.944Z,556
2017-02-20T07:23:19.698Z,604
2017-02-20T07:24:29.550Z,620
2017-02-20T07:25:39.348Z,644
2017-02-20T07:26:49.545Z,696
2017-02-20T07:27:59.776Z,736
2017-02-20T07:29:09.536Z,824
2017-02-20T07:30:18.893Z,924
2017-02-20T07:31:28.669Z,1016
2017-02-20T07:32:38.875Z,1124
2017-02-20T07:33:49.092Z,1212
2017-02-20T07:34:59.313Z,1244
2017-02-20T07:36:09.626Z,1272
2017-02-20T07:37:19.410Z,1348
2017-02-20T07:38:29.193Z,1388
2017-02-20T07:39:38.958Z,1452
2017-02-20T07:40:48.271Z,1512
2017-02-20T07:41:58.516Z,1548
2017-02-20T07:43:08.269Z,1584
2017-02-20T07:44:18.479Z,1636
2017-02-20T07:45:28.246Z,1740
2017-02-20T07:46:38.877Z,1784
2017-02-20T07:47:48.262Z,1848
2017-02-20T07:48:57.591Z,1872
2017-02-20T07:50:06.935Z,1908
2017-02-20T07:51:16.685Z,1952
2017-02-20T07:52:26.447Z,2040
2017-02-20T07:53:36.256Z,2040
2017-02-20T07:54:46.012Z,1972
2017-02-20T07:55:55.783Z,1888
2017-02-20T07:57:05.551Z,2060
2017-02-20T07:58:15.763Z,2140
2017-02-20T07:59:26.018Z,2180
2017-02-20T08:00:35.359Z,1876
2017-02-20T08:01:45.120Z,1964
2017-02-20T08:02:54.873Z,2224
2017-02-20T08:04:05.084Z,2548
2017-02-20T08:05:14.916Z,2724
2017-02-20T08:06:25.153Z,2804
2017-02-20T08:07:34.470Z,2932
2017-02-20T08:08:44.267Z,2976
2017-02-20T08:09:54.092Z,2944
2017-02-20T08:11:04.021Z,2924
2017-02-20T08:12:13.799Z,2848
2017-02-20T08:13:24.452Z,2992
2017-02-20T08:14:34.217Z,2928
2017-02-20T08:15:43.990Z,3088
2017-02-20T08:16:53.371Z,2524
2017-02-20T08:18:02.713Z,2552
2017-02-20T08:19:12.932Z,2780
2017-02-20T08:20:23.131Z,2684
2017-02-20T08:21:33.780Z,2420
2017-02-20T08:22:43.153Z,2260
2017-02-20T08:23:53.354Z,2336
2017-02-20T08:25:03.571Z,2256
2017-02-20T08:26:12.896Z,2176
2017-02-20T08:27:22.677Z,1960
2017-02-20T08:28:32.937Z,1732
2017-02-20T08:29:43.144Z,1812
2017-02-20T08:30:52.933Z,2272
2017-02-20T08:32:03.150Z,2044
2017-02-20T08:33:12.912Z,1368
2017-02-20T08:34:23.165Z,1700
2017-02-20T08:35:32.962Z,1284
2017-02-20T08:36:42.779Z,1092
2017-02-20T08:37:52.980Z,1208
2017-02-20T08:39:02.741Z,1124
2017-02-20T08:40:12.541Z,1304
2017-02-20T08:41:22.300Z,1220
2017-02-20T08:42:32.077Z,1116
2017-02-20T08:43:41.838Z,1064
2017-02-20T08:44:51.591Z,1060
2017-02-20T08:46:00.972Z,1016
2017-02-20T08:47:10.746Z,1212
2017-02-20T08:48:20.519Z,916
2017-02-20T08:49:30.288Z,944
2017-02-20T08:50:40.049Z,936
2017-02-20T08:51:50.298Z,1040
2017-02-20T08:53:00.055Z,1196
2017-02-20T08:54:09.812Z,1100
2017-02-20T08:55:19.593Z,1152
2017-02-20T08:56:29.357Z,1116
2017-02-20T08:57:39.624Z,1212
2017-02-20T08:58:49.396Z,968
2017-02-20T08:59:59.642Z,1264
2017-02-20T09:01:09.431Z,1296
2017-02-20T09:02:19.229Z,1108
2017-02-20T09:03:29.516Z,1252
2017-02-20T09:04:39.271Z,1120
2017-02-20T09:05:49.028Z,1244
2017-02-20T09:06:59.233Z,1108
2017-02-20T09:08:08.999Z,1256
2017-02-20T09:09:19.252Z,1168
2017-02-20T09:10:29.020Z,1208
2017-02-20T09:11:39.254Z,1228
2017-02-20T09:12:49.011Z,1276
2017-02-20T09:13:58.775Z,1324
2017-02-20T09:15:09.042Z,1176
2017-02-20T09:16:19.264Z,1272
2017-02-20T09:17:29.016Z,1328
2017-02-20T09:18:39.256Z,1304
2017-02-20T09:19:49.028Z,1300
2017-02-20T09:20:58.988Z,1520
2017-02-20T09:22:09.202Z,1540
2017-02-20T09:23:19.401Z,1412
2017-02-20T09:24:28.727Z,1376
2017-02-20T09:25:38.956Z,1348
2017-02-20T09:26:48.917Z,1308
2017-02-20T09:27:58.687Z,1248
2017-02-20T09:29:09.325Z,1432
2017-02-20T09:30:19.525Z,1668
2017-02-20T09:31:29.303Z,1404
2017-02-20T09:32:39.128Z,1584
2017-02-20T09:33:49.325Z,1976
2017-02-20T09:34:59.094Z,1824
2017-02-20T09:36:08.871Z,1920
2017-02-20T09:37:18.650Z,2376
2017-02-20T09:38:28.509Z,2728
2017-02-20T09:39:38.300Z,2808
2017-02-20T09:40:48.069Z,3164
2017-02-20T09:41:57.829Z,3124
2017-02-20T09:43:07.605Z,2848
2017-02-20T09:44:17.884Z,3152
2017-02-20T09:45:27.657Z,3932
2017-02-20T09:46:37.441Z,3188
2017-02-20T09:47:47.199Z,3304
2017-02-20T09:48:56.961Z,2740
2017-02-20T09:50:06.793Z,2756
2017-02-20T09:51:16.553Z,2912
2017-02-20T09:52:26.364Z,3236
2017-02-20T09:53:36.563Z,3428
2017-02-20T09:54:46.774Z,2776
2017-02-20T09:55:56.587Z,3112
2017-02-20T09:57:07.235Z,2848
2017-02-20T09:58:17.426Z,3648
2017-02-20T09:59:27.637Z,3100
2017-02-20T10:00:37.828Z,2364
2017-02-20T10:01:48.083Z,2540
2017-02-20T10:02:59.166Z,2696
2017-02-20T10:04:09.367Z,2844
2017-02-20T10:05:19.181Z,3416
2017-02-20T10:06:28.970Z,3812
2017-02-20T10:07:38.783Z,2756
2017-02-20T10:08:48.104Z,2420
2017-02-20T10:09:57.439Z,2380
2017-02-20T10:11:08.082Z,2304
2017-02-20T10:12:17.852Z,2648
2017-02-20T10:13:27.668Z,2424
2017-02-20T10:14:37.453Z,2580
2017-02-20T10:15:47.263Z,2532
2017-02-20T10:16:57.500Z,2324
2017-02-20T10:18:07.748Z,2212
2017-02-20T10:19:17.128Z,2256
2017-02-20T10:20:27.788Z,2068
2017-02-20T10:21:38.434Z,2056
2017-02-20T10:22:48.188Z,2116
2017-02-20T10:23:58.391Z,2044
2017-02-20T10:25:08.656Z,1820
2017-02-20T10:26:18.422Z,1868
2017-02-20T10:27:28.178Z,1940
2017-02-20T10:28:37.976Z,2088
2017-02-20T10:29:47.753Z,1968
2017-02-20T10:30:57.570Z,1912
2017-02-20T10:32:07.785Z,2016
2017-02-20T10:33:17.592Z,2188
2017-02-20T10:34:27.818Z,1924
2017-02-20T10:35:37.594Z,1648
2017-02-20T10:36:47.447Z,1692
2017-02-20T10:37:57.212Z,1624
2017-02-20T10:39:06.982Z,1488
2017-02-20T10:40:16.753Z,1516
2017-02-20T10:41:27.388Z,1612
2017-02-20T10:42:37.205Z,1640
2017-02-20T10:43:46.969Z,1608
2017-02-20T10:44:57.183Z,1752
2017-02-20T10:46:07.816Z,1724
2017-02-20T10:47:17.567Z,1952
2017-02-20T10:48:27.395Z,1804
2017-02-20T10:49:37.185Z,1816
2017-02-20T10:50:46.941Z,1772
2017-02-20T10:51:56.699Z,1560
2017-02-20T10:53:06.910Z,1652
2017-02-20T10:54:17.602Z,1692
2017-02-20T10:55:27.357Z,1620
2017-02-20T10:56:38.024Z,1708
2017-02-20T10:57:47.772Z,1776
2017-02-20T10:58:57.550Z,1960
2017-02-20T11:00:07.474Z,1924
2017-02-20T11:01:17.705Z,2148
2017-02-20T11:02:27.502Z,2148
2017-02-20T11:03:37.311Z,2340
2017-02-20T11:04:47.080Z,2156
2017-02-20T11:05:56.893Z,2008
2017-02-20T11:07:07.110Z,2048
2017-02-20T11:08:16.888Z,2232
2017-02-20T11:09:26.640Z,2372
2017-02-20T11:10:36.411Z,2752
2017-02-20T11:11:46.219Z,3180
2017-02-20T11:12:56.869Z,2596
2017-02-20T11:14:06.630Z,2536
2017-02-20T11:15:15.947Z,2552
2017-02-20T11:16:25.706Z,2912
2017-02-20T11:17:36.404Z,2692
2017-02-20T11:18:47.050Z,2840
2017-02-20T11:19:56.818Z,3048
2017-02-20T11:21:07.459Z,2644
2017-02-20T11:22:17.678Z,2484
2017-02-20T11:23:27.479Z,3120
2017-02-20T11:24:37.700Z,2264
2017-02-20T11:25:47.021Z,2968
2017-02-20T11:26:56.350Z,2924
2017-02-20T11:28:06.128Z,3112
2017-02-20T11:29:15.953Z,2712
2017-02-20T11:30:25.718Z,3040
2017-02-20T11:31:35.922Z,2772
2017-02-20T11:32:45.237Z,2544
2017-02-20T11:33:55.001Z,2748
2017-02-20T11:35:04.811Z,3484
2017-02-20T11:36:15.032Z,2800
2017-02-20T11:37:25.238Z,2556
2017-02-20T11:38:35.434Z,2668
2017-02-20T11:39:45.218Z,2308
2017-02-20T11:40:55.021Z,2300
2017-02-20T11:42:05.238Z,1700
2017-02-20T11:43:14.571Z,2252
2017-02-20T11:44:24.332Z,2284
2017-02-20T11:45:34.533Z,2272
2017-02-20T11:46:45.423Z,2760
2017-02-20T11:47:55.191Z,2700
2017-02-20T11:49:05.385Z,2512
2017-02-20T11:50:14.737Z,2732
2017-02-20T11:51:24.956Z,2252
2017-02-20T11:52:34.764Z,2656
2017-02-20T11:53:44.537Z,2288
2017-02-20T11:54:54.743Z,2492
2017-02-20T11:56:04.981Z,2580
2017-02-20T11:57:14.762Z,2456
2017-02-20T11:58:24.575Z,2196
2017-02-20T11:59:34.348Z,2276
2017-02-20T12:00:44.608Z,2296
2017-02-20T12:01:54.818Z,2388
2017-02-20T12:03:04.154Z,2372
2017-02-20T12:04:14.392Z,2152
2017-02-20T12:05:24.598Z,2424
2017-02-20T12:06:34.357Z,2560
2017-02-20T12:07:44.568Z,2196
2017-02-20T12:08:54.353Z,1924
2017-02-20T12:10:04.598Z,1972
2017-02-20T12:11:14.359Z,2216
2017-02-20T12:12:24.584Z,2260
2017-02-20T12:13:34.789Z,2396
2017-02-20T12:14:44.551Z,2272
2017-02-20T12:15:53.932Z,2332
2017-02-20T12:17:03.722Z,2400
2017-02-20T12:18:13.943Z,2352
2017-02-20T12:19:23.752Z,2412
2017-02-20T12:20:33.973Z,2256
2017-02-20T12:21:43.343Z,2260
2017-02-20T12:22:53.103Z,2288
2017-02-20T12:24:02.433Z,2112
2017-02-20T12:25:12.626Z,2020
2017-02-20T12:26:22.379Z,1876
2017-02-20T12:27:31.772Z,1824
2017-02-20T12:28:41.534Z,1828
2017-02-20T12:29:51.331Z,1892
2017-02-20T12:31:01.552Z,1992
2017-02-20T12:32:11.312Z,2200
2017-02-20T12:33:21.117Z,2460
2017-02-20T12:34:30.907Z,2516
2017-02-20T12:35:41.564Z,2556
2017-02-20T12:36:50.886Z,2828
2017-02-20T12:38:00.671Z,2924
2017-02-20T12:39:10.500Z,2784
2017-02-20T12:40:20.261Z,2344
2017-02-20T12:41:30.026Z,2292
2017-02-20T12:42:39.799Z,1912
2017-02-20T12:43:49.143Z,2172
2017-02-20T12:44:59.834Z,2012
2017-02-20T12:46:10.035Z,2236
2017-02-20T12:47:19.792Z,1972
2017-02-20T12:48:29.544Z,1892
2017-02-20T12:49:39.359Z,1952
2017-02-20T12:50:49.160Z,2080
2017-02-20T12:51:58.920Z,2560
2017-02-20T12:53:08.678Z,2300
2017-02-20T12:54:18.431Z,3188
2017-02-20T12:55:28.204Z,2816
2017-02-20T12:56:38.026Z,2900
2017-02-20T12:57:48.234Z,2944
2017-02-20T12:58:58.028Z,2856
2017-02-20T13:00:07.780Z,2572
2017-02-20T13:01:17.119Z,2704
2017-02-20T13:02:27.040Z,2824
2017-02-20T13:03:36.796Z,2588
2017-02-20T13:04:46.567Z,2536
2017-02-20T13:05:56.759Z,2184
2017-02-20T13:07:06.571Z,2072
2017-02-20T13:08:16.977Z,1956
2017-02-20T13:09:26.727Z,1596
2017-02-20T13:10:36.512Z,1384
2017-02-20T13:11:46.265Z,1244
2017-02-20T13:12:57.373Z,1248
2017-02-20T13:14:07.639Z,1336
2017-02-20T13:15:17.395Z,1332
2017-02-20T13:16:27.610Z,1484
2017-02-20T13:17:37.386Z,1396
2017-02-20T13:18:48.031Z,1508
2017-02-20T13:19:58.294Z,1508
2017-02-20T13:21:08.081Z,1700
2017-02-20T13:22:17.844Z,1672
2017-02-20T13:23:27.621Z,1608
2017-02-20T13:24:37.394Z,1300
2017-02-20T13:25:47.215Z,1704
2017-02-20T13:26:56.528Z,1744
2017-02-20T13:28:05.877Z,2192
2017-02-20T13:29:15.181Z,1784
2017-02-20T13:30:25.420Z,2052
2017-02-20T13:31:34.817Z,1700
2017-02-20T13:32:44.155Z,1636
2017-02-20T13:33:54.375Z,1888
2017-02-20T13:35:03.704Z,1888
2017-02-20T13:36:13.034Z,1924
2017-02-20T13:37:22.423Z,1956
2017-02-20T13:38:32.620Z,1844
2017-02-20T13:39:41.949Z,1812
2017-02-20T13:40:51.756Z,2228
2017-02-20T13:42:01.112Z,2000
2017-02-20T13:43:10.513Z,1840
2017-02-20T13:44:19.831Z,1944
2017-02-20T13:45:29.166Z,1968
2017-02-20T13:46:38.932Z,2032
2017-02-20T13:47:49.145Z,1788
2017-02-20T13:48:58.518Z,1572
2017-02-20T13:50:07.848Z,1536
2017-02-20T13:51:17.193Z,1660
2017-02-20T13:52:26.512Z,1824
2017-02-20T13:53:36.295Z,2216
2017-02-20T13:54:45.656Z,1996
2017-02-20T13:55:55.436Z,1596
2017-02-20T13:57:05.189Z,1760
2017-02-20T13:58:14.952Z,1792
2017-02-20T13:59:24.281Z,1820
2017-02-20T14:00:33.682Z,2032
2017-02-20T14:01:43.435Z,1680
2017-02-20T14:02:52.752Z,1764
2017-02-20T14:04:02.092Z,1724
2017-02-20T14:05:12.301Z,1516
2017-02-20T14:06:21.672Z,1440
2017-02-20T14:07:31.429Z,1384
2017-02-20T14:08:40.758Z,1288
2017-02-20T14:09:50.106Z,1236
2017-02-20T14:10:59.864Z,1072
2017-02-20T14:12:09.228Z,1144
2017-02-20T14:13:19.423Z,1036
2017-02-20T14:14:29.195Z,1048
2017-02-20T14:15:38.509Z,1136
2017-02-20T14:16:47.834Z,1196
2017-02-20T14:17:57.204Z,1268
2017-02-20T14:19:06.965Z,1580
2017-02-20T14:20:16.289Z,1344
2017-02-20T14:21:25.603Z,1412
2017-02-20T14:22:34.938Z,1232
2017-02-20T14:23:44.314Z,1400
2017-02-20T14:24:54.535Z,1432
2017-02-20T14:26:04.312Z,1196
2017-02-20T14:27:14.068Z,1408
2017-02-20T14:28:23.389Z,1580
2017-02-20T14:29:34.094Z,1272
2017-02-20T14:30:44.329Z,1104
2017-02-20T14:31:53.646Z,1296
2017-02-20T14:33:03.851Z,1356
2017-02-20T14:34:13.619Z,1484
2017-02-20T14:35:23.432Z,1484
2017-02-20T14:36:33.623Z,1948
2017-02-20T14:37:43.394Z,1636
2017-02-20T14:38:53.596Z,1888
2017-02-20T14:40:03.364Z,1544
2017-02-20T14:41:12.874Z,1800
2017-02-20T14:42:22.664Z,1752
2017-02-20T14:43:31.969Z,1332
2017-02-20T14:44:41.278Z,1216
2017-02-20T14:45:50.588Z,980
2017-02-20T14:46:59.945Z,992
2017-02-20T14:48:09.254Z,812
2017-02-20T14:49:19.040Z,968
2017-02-20T14:50:29.260Z,1032
2017-02-20T14:51:39.033Z,1040
2017-02-20T14:52:48.547Z,1176
2017-02-20T14:53:58.312Z,880
2017-02-20T14:55:07.640Z,892
2017-02-20T14:56:17.398Z,800
2017-02-20T14:57:26.720Z,752
2017-02-20T14:58:36.547Z,832
2017-02-20T14:59:46.746Z,860
2017-02-20T15:00:56.490Z,672
2017-02-20T15:02:05.859Z,724
2017-02-20T15:03:15.614Z,680
2017-02-20T15:04:25.418Z,652
2017-02-20T15:05:34.760Z,528
2017-02-20T15:06:44.088Z,604
2017-02-20T15:07:53.837Z,532
2017-02-20T15:09:03.159Z,516
2017-02-20T15:10:12.528Z,524
2017-02-20T15:11:21.862Z,524
2017-02-20T15:12:31.211Z,496
2017-02-20T15:13:40.540Z,468
2017-02-20T15:14:49.845Z,480
2017-02-20T15:15:59.678Z,452
2017-02-20T15:17:09.443Z,448
2017-02-20T15:18:18.765Z,468
2017-02-20T15:19:28.078Z,420
2017-02-20T15:20:37.839Z,388
2017-02-20T15:21:47.207Z,420
2017-02-20T15:22:56.977Z,456
2017-02-20T15:24:06.294Z,412
2017-02-20T15:25:15.638Z,380
2017-02-20T15:26:25.893Z,360
2017-02-20T15:27:35.265Z,324
2017-02-20T15:28:45.055Z,332
2017-02-20T15:29:54.846Z,368
2017-02-20T15:31:04.157Z,336
2017-02-20T15:32:13.475Z,280
2017-02-20T15:33:23.011Z,312
2017-02-20T15:34:32.761Z,328
2017-02-20T15:35:42.530Z,336
2017-02-20T15:36:52.754Z,352
2017-02-20T15:38:02.518Z,360
2017-02-20T15:39:12.022Z,300
2017-02-20T15:40:21.351Z,364
2017-02-20T15:41:30.686Z,364
2017-02-20T15:42:41.334Z,288
2017-02-20T15:43:50.654Z,276
2017-02-20T15:45:00.034Z,268
2017-02-20T15:46:09.809Z,304
2017-02-20T15:47:19.578Z,256
2017-02-20T15:48:28.883Z,244
2017-02-20T15:49:38.652Z,232
2017-02-20T15:50:48.466Z,224
2017-02-20T15:51:58.223Z,212
2017-02-20T15:53:07.542Z,220
2017-02-20T15:54:17.297Z,224
2017-02-20T15:55:26.624Z,256
2017-02-20T15:56:35.991Z,220
2017-02-20T15:57:45.303Z,208
2017-02-20T15:58:54.622Z,200
2017-02-20T16:00:04.839Z,208
2017-02-20T16:01:14.638Z,208
2017-02-20T16:02:24.481Z,188
2017-02-20T16:03:33.806Z,152
2017-02-20T16:04:43.562Z,180
2017-02-20T16:05:53.783Z,208
2017-02-20T16:07:03.562Z,180
2017-02-20T16:08:13.139Z,176
2017-02-20T16:09:23.346Z,176
2017-02-20T16:10:32.661Z,156
2017-02-20T16:11:41.986Z,168
2017-02-20T16:12:51.328Z,116